Time;durP1;ratioP1;P1;durP2;ratioP2;P2;SDS_P1;SDS_P2;PMS_P1;PMS_P2;Temp;Humidity;BMP_temperature;BMP_pressure;BME280_temperature;BME280_humidity;BME280_pressure;Samples;Min_cycle;Max_cycle;Signal;HPM_P1;HPM_P2
2022/02/09 00:04:26;;;;;;;1.75;0.60;;;;;;;;;;4994322;28;20077;-70
2022/02/09 00:09:19;;;;;;;4.53;0.70;;;;;;;;;;4993962;28;20036;-70
2022/02/09 00:11:49;;;;;;;2.80;0.70;;;;;;;;;;4992720;28;20482;-70
2022/02/09 00:22:39;;;;;;;2.88;1.25;;;;;;;;;;4957991;28;20031;-69
2022/02/09 00:36:25;;;;;;;4.45;0.90;;;;;;;;;;4993783;28;20518;-69
2022/02/09 00:39:11;;;;;;;3.22;0.80;;;;;;;;;;4992506;28;20033;-71
2022/02/09 01:39:18;;;;;;;1.92;0.73;;;;;;;;;;4996830;28;20195;-70
2022/02/09 01:57:49;;;;;;;1.33;0.60;;;;;;;;;;4996079;28;20391;-70
2022/02/09 02:00:15;;;;;;;3.38;0.80;;;;;;;;;;4994884;28;20026;-71
2022/02/09 02:02:42;;;;;;;2.30;0.70;;;;;;;;;;4996130;28;20030;-71
2022/02/09 02:05:08;;;;;;;2.35;0.55;;;;;;;;;;4995890;28;20507;-73
2022/02/09 02:07:51;;;;;;;4.95;0.60;;;;;;;;;;4996092;28;20046;-70
2022/02/09 02:10:24;;;;;;;1.67;0.70;;;;;;;;;;4994785;28;20026;-70
2022/02/09 02:12:53;;;;;;;2.50;0.60;;;;;;;;;;4994796;28;20034;-71
2022/02/09 02:18:01;;;;;;;6.90;0.75;;;;;;;;;;4996162;28;20129;-71
2022/02/09 02:20:37;;;;;;;6.55;0.70;;;;;;;;;;4994613;28;20059;-72
2022/02/09 02:26:26;;;;;;;2.50;0.50;;;;;;;;;;4973568;28;20479;-70
2022/02/09 02:29:10;;;;;;;1.80;0.80;;;;;;;;;;4995796;28;20030;-70
2022/02/09 02:47:37;;;;;;;1.85;0.60;;;;;;;;;;4995329;28;20031;-71
2022/02/09 03:12:11;;;;;;;5.38;0.68;;;;;;;;;;4994881;28;20029;-71
2022/02/09 03:17:15;;;;;;;1.23;0.50;;;;;;;;;;4994758;28;20031;-72
2022/02/09 03:22:25;;;;;;;3.20;0.80;;;;;;;;;;4995520;28;20034;-70
2022/02/09 03:54:08;;;;;;;1.45;0.40;;;;;;;;;;4994481;28;20039;-70
2022/02/09 03:59:13;;;;;;;1.73;0.50;;;;;;;;;;4994059;28;20030;-71
2022/02/09 04:01:41;;;;;;;1.58;0.60;;;;;;;;;;4994044;28;20022;-70
2022/02/09 04:04:07;;;;;;;1.25;0.40;;;;;;;;;;4992558;28;20054;-70
2022/02/09 04:06:36;;;;;;;1.40;0.40;;;;;;;;;;4992828;28;20026;-70
2022/02/09 04:09:06;;;;;;;0.85;0.35;;;;;;;;;;4993977;28;20030;-73
2022/02/09 04:11:38;;;;;;;1.60;0.40;;;;;;;;;;4992721;28;20467;-69
2022/02/09 04:19:19;;;;;;;1.00;0.47;;;;;;;;;;4994591;28;20045;-70
2022/02/09 04:38:30;;;;;;;3.10;0.77;;;;;;;;;;4997822;28;20026;-71
2022/02/09 04:49:08;;;;;;;2.42;0.65;;;;;;;;;;4997544;28;20041;-71
2022/02/09 04:52:02;;;;;;;2.38;0.60;;;;;;;;;;4996278;28;20026;-71
2022/02/09 04:57:05;;;;;;;1.38;0.60;;;;;;;;;;4997355;28;20034;-71
2022/02/09 05:28:30;;;;;;;2.13;0.60;;;;;;;;;;4996785;28;20031;-70
2022/02/09 05:30:56;;;;;;;1.40;0.60;;;;;;;;;;4996450;28;20538;-68
2022/02/09 05:33:25;;;;;;;2.40;0.70;;;;;;;;;;4995404;28;20030;-69
2022/02/09 05:35:52;;;;;;;4.00;0.93;;;;;;;;;;4995315;28;20066;-73
2022/02/09 05:38:19;;;;;;;1.58;0.60;;;;;;;;;;4996577;28;20065;-69
2022/02/09 05:40:46;;;;;;;4.47;0.77;;;;;;;;;;4995215;28;20026;-70
2022/02/09 05:43:13;;;;;;;3.65;0.82;;;;;;;;;;4995242;28;20030;-69
2022/02/09 05:46:16;;;;;;;1.95;0.80;;;;;;;;;;4995904;28;20452;-69
2022/02/09 05:51:36;;;;;;;1.95;0.70;;;;;;;;;;4996656;28;20037;-70
2022/02/09 05:56:45;;;;;;;2.90;0.80;;;;;;;;;;4996207;28;20050;-70
2022/02/09 05:59:44;;;;;;;1.77;0.60;;;;;;;;;;4995012;28;20395;-69
2022/02/09 06:02:03;;;;;;;7.72;2.65;;;;;;;;;;4994113;28;20022;-68
2022/02/09 06:04:29;;;;;;;7.32;3.00;;;;;;;;;;5013924;28;20054;-68
2022/02/09 06:06:57;;;;;;;3.28;1.25;;;;;;;;;;5017948;28;20390;-68
2022/02/09 06:09:23;;;;;;;3.67;0.95;;;;;;;;;;5013187;28;20391;-68
2022/02/09 06:12:06;;;;;;;1.92;0.80;;;;;;;;;;5013162;28;20026;-68
2022/02/09 06:19:55;;;;;;;1.77;0.70;;;;;;;;;;5014720;28;20489;-68
2022/02/09 06:22:22;;;;;;;2.67;0.70;;;;;;;;;;5014337;28;20041;-68
2022/02/09 06:24:48;;;;;;;1.85;0.70;;;;;;;;;;5012993;28;20105;-68
2022/02/09 06:27:15;;;;;;;3.47;0.82;;;;;;;;;;5012999;28;20384;-68
2022/02/09 06:29:46;;;;;;;2.83;0.77;;;;;;;;;;5012572;28;20054;-66
2022/02/09 06:32:13;;;;;;;3.95;1.00;;;;;;;;;;5014094;28;20471;-66
2022/02/09 06:34:42;;;;;;;2.00;0.70;;;;;;;;;;4998968;28;20027;-67
2022/02/09 06:39:45;;;;;;;3.85;0.70;;;;;;;;;;5014090;28;20022;-67
2022/02/09 06:42:12;;;;;;;2.20;0.93;;;;;;;;;;5013115;28;20038;-66
2022/02/09 06:44:38;;;;;;;2.58;0.60;;;;;;;;;;5000431;28;20033;-67
2022/02/09 06:47:04;;;;;;;1.63;0.75;;;;;;;;;;4993021;28;20399;-67
2022/02/09 06:49:32;;;;;;;2.67;0.70;;;;;;;;;;4993062;28;20180;-67
2022/02/09 06:51:59;;;;;;;2.35;0.93;;;;;;;;;;4992970;28;20027;-67
2022/02/09 06:54:31;;;;;;;2.17;1.00;;;;;;;;;;4997143;28;20023;-66
2022/02/09 06:57:04;;;;;;;1.67;0.70;;;;;;;;;;5003099;28;20030;-67
2022/02/09 06:59:30;;;;;;;2.08;0.70;;;;;;;;;;5004528;28;20015;-67
2022/02/09 07:02:04;;;;;;;1.50;0.55;;;;;;;;;;5001185;28;20030;-67
2022/02/09 07:04:30;;;;;;;1.73;0.75;;;;;;;;;;4949557;28;1539566;-67
2022/02/09 07:06:57;;;;;;;2.05;0.90;;;;;;;;;;5005085;28;20069;-67
2022/02/09 07:09:23;;;;;;;2.28;0.73;;;;;;;;;;5004081;28;20102;-67
2022/02/09 07:11:49;;;;;;;1.02;0.47;;;;;;;;;;5002175;28;20026;-67
2022/02/09 07:14:20;;;;;;;1.85;0.77;;;;;;;;;;5005022;28;20022;-67
2022/02/09 07:16:46;;;;;;;0.88;0.32;;;;;;;;;;5004653;28;20395;-67
2022/02/09 07:19:12;;;;;;;2.72;1.20;;;;;;;;;;5002862;28;20019;-67
2022/02/09 07:21:40;;;;;;;2.20;0.90;;;;;;;;;;5003336;28;20026;-67
2022/02/09 07:24:11;;;;;;;2.40;0.68;;;;;;;;;;5003102;28;20019;-67
2022/02/09 07:29:13;;;;;;;1.63;0.70;;;;;;;;;;5005149;28;20487;-67
2022/02/09 07:31:39;;;;;;;2.47;0.82;;;;;;;;;;5002210;28;20478;-67
2022/02/09 07:34:05;;;;;;;2.33;0.73;;;;;;;;;;5003899;28;20503;-67
2022/02/09 07:36:35;;;;;;;1.40;0.70;;;;;;;;;;5013746;28;20475;-68
2022/02/09 07:39:06;;;;;;;1.67;0.80;;;;;;;;;;5013031;28;20095;-68
2022/02/09 07:41:34;;;;;;;1.15;0.50;;;;;;;;;;5012586;28;20556;-68
2022/02/09 07:44:19;;;;;;;1.08;0.40;;;;;;;;;;5012632;28;20049;-68
2022/02/09 07:52:05;;;;;;;2.05;0.50;;;;;;;;;;5001966;28;20027;-68
2022/02/09 07:54:32;;;;;;;1.27;0.60;;;;;;;;;;4992677;28;20041;-68
2022/02/09 07:56:58;;;;;;;0.98;0.38;;;;;;;;;;4994013;28;20514;-68
2022/02/09 07:59:24;;;;;;;0.95;0.30;;;;;;;;;;4992768;28;20026;-68
2022/02/09 08:01:51;;;;;;;1.15;0.30;;;;;;;;;;4992653;28;20026;-68
2022/02/09 08:04:17;;;;;;;3.72;0.30;;;;;;;;;;4993840;28;20126;-68
2022/02/09 08:06:45;;;;;;;1.33;0.63;;;;;;;;;;4976554;28;20022;-68
2022/02/09 08:09:18;;;;;;;2.15;0.50;;;;;;;;;;4992622;28;20030;-68
2022/02/09 08:33:23;;;;;;;2.08;0.47;;;;;;;;;;5006894;28;20026;-68
2022/02/09 08:35:30;;;;;;;1.10;0.40;;;;;;;;;;5010334;28;20034;-69
2022/02/09 08:37:58;;;;;;;3.00;0.63;;;;;;;;;;5013236;28;20089;-69
2022/02/09 08:40:25;;;;;;;0.95;0.52;;;;;;;;;;5011962;28;20076;-69
2022/02/09 08:42:51;;;;;;;1.73;0.60;;;;;;;;;;5013685;28;20525;-69
2022/02/09 08:45:17;;;;;;;1.42;0.45;;;;;;;;;;5013604;28;20057;-69
2022/02/09 08:47:44;;;;;;;3.10;0.55;;;;;;;;;;5013213;28;20026;-69
2022/02/09 08:50:11;;;;;;;1.52;0.52;;;;;;;;;;5011912;28;20438;-69
2022/02/09 08:52:37;;;;;;;1.10;0.30;;;;;;;;;;5012927;28;20343;-68
2022/02/09 08:55:05;;;;;;;1.85;0.43;;;;;;;;;;5011554;28;20096;-69
2022/02/09 08:57:31;;;;;;;1.15;0.40;;;;;;;;;;5011868;28;20493;-69
2022/02/09 08:59:59;;;;;;;1.77;0.38;;;;;;;;;;5011410;28;20080;-69
2022/02/09 09:02:33;;;;;;;3.58;0.40;;;;;;;;;;5011490;28;20048;-68
2022/02/09 09:05:10;;;;;;;0.88;0.30;;;;;;;;;;5011634;28;20108;-67
2022/02/09 09:07:38;;;;;;;1.38;0.45;;;;;;;;;;5016988;28;20176;-67
2022/02/09 09:10:25;;;;;;;1.92;0.50;;;;;;;;;;5015392;28;20026;-67
2022/02/09 10:01:55;;;;;;;1.20;0.38;;;;;;;;;;5011636;28;20034;-67
2022/02/09 10:14:13;;;;;;;1.25;0.30;;;;;;;;;;5015817;28;20033;-67
2022/02/09 10:33:18;;;;;;;2.90;0.70;;;;;;;;;;4996329;28;20400;-68
2022/02/09 10:35:54;;;;;;;0.70;0.40;;;;;;;;;;4995709;28;20031;-68
2022/02/09 10:38:29;;;;;;;0.88;0.40;;;;;;;;;;4994132;28;20125;-68
2022/02/09 10:41:07;;;;;;;0.70;0.40;;;;;;;;;;4994165;28;20510;-68
2022/02/09 10:43:35;;;;;;;0.82;0.40;;;;;;;;;;4994187;28;20022;-68
2022/02/09 10:46:09;;;;;;;1.00;0.40;;;;;;;;;;4995332;28;20476;-68
2022/02/09 10:48:40;;;;;;;2.40;0.90;;;;;;;;;;4993919;28;20039;-69
2022/02/09 10:51:22;;;;;;;2.38;0.75;;;;;;;;;;4995613;28;20503;-68
2022/02/09 10:54:02;;;;;;;1.15;0.40;;;;;;;;;;4993916;28;20072;-68
2022/02/09 10:56:29;;;;;;;0.95;0.43;;;;;;;;;;4993756;28;20050;-68
2022/02/09 10:58:58;;;;;;;1.10;0.40;;;;;;;;;;4995009;28;20038;-67
2022/02/09 11:01:25;;;;;;;1.80;0.63;;;;;;;;;;4993508;28;20034;-68
2022/02/09 11:03:51;;;;;;;4.22;1.27;;;;;;;;;;4994972;28;20102;-67
2022/02/09 11:06:19;;;;;;;1.40;0.60;;;;;;;;;;4993452;28;20538;-68
2022/02/09 11:08:45;;;;;;;0.93;0.43;;;;;;;;;;5009286;28;20029;-68
2022/02/09 11:11:12;;;;;;;0.77;0.32;;;;;;;;;;5014328;28;20032;-68
2022/02/09 11:13:40;;;;;;;1.95;0.40;;;;;;;;;;5013089;28;20037;-68
2022/02/09 11:16:07;;;;;;;0.95;0.40;;;;;;;;;;5012478;28;20041;-69
2022/02/09 11:18:35;;;;;;;1.05;0.47;;;;;;;;;;5012717;28;20491;-68
2022/02/09 11:21:03;;;;;;;1.98;0.47;;;;;;;;;;5012486;28;20034;-68
2022/02/09 11:23:45;;;;;;;1.23;0.28;;;;;;;;;;5012998;28;20376;-70
2022/02/09 11:26:37;;;;;;;0.98;0.50;;;;;;;;;;5012878;28;20117;-68
2022/02/09 11:34:53;;;;;;;2.10;0.40;;;;;;;;;;5013961;28;20033;-69
2022/02/09 11:37:27;;;;;;;0.93;0.28;;;;;;;;;;5012771;28;20091;-69
2022/02/09 11:39:56;;;;;;;0.50;0.28;;;;;;;;;;5012745;28;20124;-66
2022/02/09 11:42:28;;;;;;;0.85;0.35;;;;;;;;;;5012636;28;20057;-67
2022/02/09 11:45:08;;;;;;;0.93;0.40;;;;;;;;;;5013913;28;20037;-68
2022/02/09 12:09:50;;;;;;;0.70;0.30;;;;;;;;;;4994201;28;20048;-68
2022/02/09 12:12:21;;;;;;;0.82;0.35;;;;;;;;;;4992497;28;20077;-67
2022/02/09 12:23:06;;;;;;;0.98;0.40;;;;;;;;;;4994124;28;20289;-66
2022/02/09 12:25:43;;;;;;;1.02;0.30;;;;;;;;;;4994087;28;20057;-67
2022/02/09 12:28:40;;;;;;;1.55;0.60;;;;;;;;;;4993762;28;20538;-67
2022/02/09 12:31:06;;;;;;;1.70;0.40;;;;;;;;;;4982132;28;20380;-66
2022/02/09 12:33:32;;;;;;;1.38;0.57;;;;;;;;;;4992393;28;20368;-66
2022/02/09 12:36:13;;;;;;;1.00;0.35;;;;;;;;;;4993669;28;20034;-66
2022/02/09 12:38:39;;;;;;;0.60;0.30;;;;;;;;;;4992114;28;20022;-67
2022/02/09 12:41:09;;;;;;;1.75;0.40;;;;;;;;;;4995648;28;20109;-67
2022/02/09 12:43:47;;;;;;;4.13;0.50;;;;;;;;;;4997648;28;20085;-67
2022/02/09 12:46:13;;;;;;;2.08;0.65;;;;;;;;;;4996255;28;20034;-67
2022/02/09 12:48:39;;;;;;;5.13;0.77;;;;;;;;;;4997277;28;20084;-67
2022/02/09 12:51:05;;;;;;;2.55;0.82;;;;;;;;;;4996055;28;20056;-68
2022/02/09 12:53:32;;;;;;;2.45;0.80;;;;;;;;;;4997303;28;20027;-68
2022/02/09 12:55:58;;;;;;;3.38;0.88;;;;;;;;;;4995895;28;20487;-68
2022/02/09 12:58:24;;;;;;;2.28;0.52;;;;;;;;;;4997165;28;20388;-67
2022/02/09 13:00:51;;;;;;;6.13;0.50;;;;;;;;;;4995865;28;20184;-68
2022/02/09 13:03:21;;;;;;;2.05;0.57;;;;;;;;;;4995574;28;20046;-68
2022/02/09 13:05:53;;;;;;;2.95;0.40;;;;;;;;;;4995868;28;20081;-68
2022/02/09 13:08:27;;;;;;;3.08;0.70;;;;;;;;;;5006995;28;20021;-68
2022/02/09 13:11:05;;;;;;;0.90;0.40;;;;;;;;;;5015338;28;20026;-68
2022/02/09 13:13:33;;;;;;;0.88;0.40;;;;;;;;;;5016682;28;20033;-68
2022/02/09 13:18:55;;;;;;;3.40;0.50;;;;;;;;;;5016438;28;20116;-68
2022/02/09 13:24:44;;;;;;;1.77;0.57;;;;;;;;;;5016656;28;20037;-68
2022/02/09 14:02:55;;;;;;;1.60;0.52;;;;;;;;;;5015750;28;20069;-67
2022/02/09 14:55:31;;;;;;;2.70;0.70;;;;;;;;;;5015299;28;20080;-68
2022/02/09 14:58:02;;;;;;;3.00;0.75;;;;;;;;;;5011433;28;20042;-66
2022/02/09 15:00:29;;;;;;;4.13;1.05;;;;;;;;;;5013245;28;20497;-67
2022/02/09 15:03:05;;;;;;;3.70;0.57;;;;;;;;;;5014200;28;20397;-69
2022/02/09 15:21:59;;;;;;;4.78;0.73;;;;;;;;;;5014230;28;20562;-68
2022/02/09 15:24:12;;;;;;;3.08;1.00;;;;;;;;;;5014083;28;20047;-69
2022/02/09 15:26:39;;;;;;;3.42;1.55;;;;;;;;;;5012972;28;20026;-70
2022/02/09 15:29:05;;;;;;;6.25;1.50;;;;;;;;;;5012923;28;20030;-69
2022/02/09 15:31:40;;;;;;;3.47;0.80;;;;;;;;;;5012779;28;20047;-68
2022/02/09 15:36:57;;;;;;;4.40;0.93;;;;;;;;;;5014025;28;20388;-69
2022/02/09 15:39:25;;;;;;;1.90;0.80;;;;;;;;;;5012755;28;20022;-67
2022/02/09 16:22:44;;;;;;;5.05;2.00;;;;;;;;;;4953185;29;20035;-66
2022/02/09 16:25:24;;;;;;;5.43;1.95;;;;;;;;;;4953238;29;20038;-67
2022/02/09 16:33:53;;;;;;;3.67;1.80;;;;;;;;;;5013636;28;20041;-69
2022/02/09 16:46:51;;;;;;;38.67;14.93;;;;;;;;;;5013711;28;20092;-67
2022/02/09 16:49:56;;;;;;;24.90;9.10;;;;;;;;;;5013928;28;20018;-68
2022/02/09 16:52:24;;;;;;;29.25;12.20;;;;;;;;;;5010182;28;20349;-67
2022/02/09 17:19:01;;;;;;;14.00;6.30;;;;;;;;;;5013331;28;20041;-68
2022/02/09 17:21:28;;;;;;;14.85;6.75;;;;;;;;;;5011826;28;20482;-69
2022/02/09 17:24:01;;;;;;;17.65;5.90;;;;;;;;;;5011689;28;20538;-69
2022/02/09 17:26:27;;;;;;;18.85;6.53;;;;;;;;;;5012767;28;20022;-69
2022/02/09 17:28:59;;;;;;;12.27;5.97;;;;;;;;;;5015199;28;20040;-69
2022/02/09 17:31:42;;;;;;;12.25;5.95;;;;;;;;;;5015046;28;20454;-69
2022/02/09 17:37:03;;;;;;;12.52;5.65;;;;;;;;;;5015167;28;20034;-69
2022/02/09 17:53:25;;;;;;;19.63;8.13;;;;;;;;;;5016367;28;20097;-68
2022/02/09 17:59:05;;;;;;;21.85;10.63;;;;;;;;;;5016227;28;20030;-67
2022/02/09 18:01:11;;;;;;;25.00;9.95;;;;;;;;;;5010263;28;20026;-66
2022/02/09 18:03:38;;;;;;;18.70;9.13;;;;;;;;;;5015604;28;20113;-67
2022/02/09 18:11:35;;;;;;;20.65;9.80;;;;;;;;;;5015751;28;20022;-68
2022/02/09 18:25:46;;;;;;;26.52;12.95;;;;;;;;;;4996207;28;20037;-67
2022/02/09 18:29:01;;;;;;;26.52;11.88;;;;;;;;;;4995426;28;20027;-67
2022/02/09 18:31:16;;;;;;;20.95;11.20;;;;;;;;;;4987722;28;20030;-67
2022/02/09 19:00:18;;;;;;;29.92;12.70;;;;;;;;;;4995948;28;20030;-66
2022/02/09 19:03:24;;;;;;;20.23;10.35;;;;;;;;;;5014028;28;20052;-66
2022/02/09 19:05:38;;;;;;;22.88;10.18;;;;;;;;;;5014261;28;20054;-66
2022/02/09 19:19:05;;;;;;;22.95;10.90;;;;;;;;;;5014272;28;20076;-68
2022/02/09 19:46:09;;;;;;;23.58;11.15;;;;;;;;;;5014059;28;20034;-68
2022/02/09 19:48:38;;;;;;;30.48;13.88;;;;;;;;;;5012830;28;20577;-68
2022/02/09 19:51:31;;;;;;;24.10;10.13;;;;;;;;;;5012539;28;20540;-68
2022/02/09 19:56:25;;;;;;;33.05;13.02;;;;;;;;;;5013678;28;20073;-67
2022/02/09 19:58:58;;;;;;;24.42;10.88;;;;;;;;;;5012562;28;20037;-67
2022/02/09 20:01:28;;;;;;;;;;;;;;;;;;5015031;28;20048;-68
2022/02/09 20:03:54;;;;;;;28.88;11.45;;;;;;;;;;5012194;28;19913;-67
2022/02/09 20:06:20;;;;;;;30.92;12.90;;;;;;;;;;5014295;28;20381;-67
2022/02/09 20:08:46;;;;;;;43.30;16.00;;;;;;;;;;5012421;28;20026;-68
2022/02/09 20:11:17;;;;;;;37.83;14.07;;;;;;;;;;5012391;28;20379;-68
2022/02/09 20:13:44;;;;;;;26.52;11.95;;;;;;;;;;5012462;28;20044;-69
2022/02/09 20:16:10;;;;;;;24.40;10.23;;;;;;;;;;5012285;28;20486;-68
2022/02/09 20:18:37;;;;;;;25.70;11.32;;;;;;;;;;5012375;28;20030;-68
2022/02/09 20:21:03;;;;;;;29.25;10.73;;;;;;;;;;5012216;28;20541;-69
2022/02/09 20:23:31;;;;;;;31.15;12.30;;;;;;;;;;5012298;28;20121;-68
2022/02/09 20:26:04;;;;;;;31.75;11.40;;;;;;;;;;5013590;28;20076;-68
2022/02/09 20:28:30;;;;;;;32.07;11.50;;;;;;;;;;5012366;28;20496;-68
2022/02/09 20:31:02;;;;;;;34.67;11.73;;;;;;;;;;5012224;28;20319;-69
2022/02/09 20:33:37;;;;;;;34.42;11.98;;;;;;;;;;5012268;28;20026;-67
2022/02/09 20:36:06;;;;;;;32.47;12.40;;;;;;;;;;5012185;28;20045;-68
2022/02/09 20:38:33;;;;;;;37.58;13.60;;;;;;;;;;5012084;28;20084;-68
2022/02/09 20:41:03;;;;;;;33.63;12.60;;;;;;;;;;5013979;28;20053;-68
2022/02/09 20:43:33;;;;;;;32.08;12.38;;;;;;;;;;5012117;28;20037;-68
2022/02/09 20:46:04;;;;;;;25.55;10.73;;;;;;;;;;5013580;28;20083;-70
2022/02/09 20:48:31;;;;;;;30.60;10.93;;;;;;;;;;5012067;28;20474;-67
2022/02/09 20:50:58;;;;;;;28.52;11.25;;;;;;;;;;5012825;28;20034;-67
2022/02/09 20:53:25;;;;;;;26.55;11.38;;;;;;;;;;5012057;28;20056;-67
2022/02/09 20:55:52;;;;;;;28.98;12.38;;;;;;;;;;5011851;28;20196;-67
2022/02/09 20:58:19;;;;;;;29.55;11.68;;;;;;;;;;5011931;28;20364;-67
2022/02/09 21:00:55;;;;;;;27.95;10.65;;;;;;;;;;5013212;28;20033;-69
2022/02/09 21:06:10;;;;;;;17.45;8.40;;;;;;;;;;5016914;28;20394;-68
2022/02/09 21:19:38;;;;;;;20.20;10.75;;;;;;;;;;5017033;28;20065;-68
2022/02/09 21:55:22;;;;;;;18.67;6.97;;;;;;;;;;5016333;28;20041;-70
2022/02/09 22:50:41;;;;;;;17.40;7.00;;;;;;;;;;5015001;28;20026;-69
2022/02/09 22:55:53;;;;;;;13.75;6.40;;;;;;;;;;5014893;28;20115;-68
2022/02/09 22:58:19;;;;;;;12.65;6.45;;;;;;;;;;5013562;28;20028;-69
2022/02/09 23:03:29;;;;;;;13.73;6.75;;;;;;;;;;5014662;28;20375;-69
2022/02/09 23:11:25;;;;;;;17.95;7.72;;;;;;;;;;5015156;28;20406;-69
2022/02/09 23:17:08;;;;;;;15.50;6.05;;;;;;;;;;5014537;28;20033;-69
